createdAt,value
2019-03-03T00:00:37.181Z,100872.40
2019-03-03T00:03:08.463Z,100872.40
2019-03-03T00:05:39.733Z,100869.40
2019-03-03T00:08:11.099Z,100864.67
2019-03-03T00:10:42.698Z,100865.09
2019-03-03T00:13:13.854Z,100875.45
2019-03-03T00:15:45.466Z,100867.24
2019-03-03T00:18:16.649Z,100867.24
2019-03-03T00:20:48.165Z,100868.52
2019-03-03T00:23:19.387Z,100865.95
2019-03-03T00:25:50.570Z,100876.75
2019-03-03T00:28:21.722Z,100884.52
2019-03-03T00:30:52.809Z,100880.63
2019-03-03T00:33:24.374Z,100880.63
2019-03-03T00:35:55.763Z,100876.72
2019-03-03T00:38:28.521Z,100876.72
2019-03-03T00:41:14.594Z,100873.70
2019-03-03T00:43:47.337Z,100878.44
2019-03-03T00:46:26.105Z,100888.80
2019-03-03T00:49:10.618Z,100894.00
2019-03-03T00:51:51.277Z,100900.48
2019-03-03T00:54:29.761Z,100900.48
2019-03-03T00:57:03.605Z,100912.98
2019-03-03T00:59:39.243Z,100917.76
2019-03-03T01:02:14.774Z,100925.09
2019-03-03T01:04:50.563Z,100925.08
2019-03-03T01:07:23.333Z,100926.37
2019-03-03T01:10:09.922Z,100930.69
2019-03-03T01:12:42.720Z,100930.69
2019-03-03T01:15:15.553Z,100932.00
2019-03-03T01:17:54.534Z,100935.86
2019-03-03T01:20:30.383Z,100929.83
2019-03-03T01:23:19.683Z,100932.44
2019-03-03T01:25:50.974Z,100923.34
2019-03-03T01:28:23.296Z,100919.89
2019-03-03T01:30:54.351Z,100926.80
2019-03-03T01:33:25.704Z,100919.90
2019-03-03T01:35:56.818Z,100926.80
2019-03-03T01:38:27.966Z,100934.16
2019-03-03T01:41:03.895Z,100930.25
2019-03-03T01:43:35.540Z,100932.41
2019-03-03T01:46:06.561Z,100932.41
2019-03-03T01:48:37.879Z,100928.55
2019-03-03T01:51:09.028Z,100942.37
2019-03-03T01:53:40.265Z,100945.81
2019-03-03T01:56:11.651Z,100953.19
2019-03-03T01:58:42.918Z,100948.40
2019-03-03T02:01:14.198Z,100935.00
2019-03-03T02:03:45.343Z,100938.87
2019-03-03T02:06:16.518Z,100947.05
2019-03-03T02:08:48.274Z,100947.05
2019-03-03T02:11:19.436Z,100935.39
2019-03-03T02:13:50.666Z,100931.07
2019-03-03T02:16:22.143Z,100924.59
2019-03-03T02:18:53.364Z,100931.91
2019-03-03T02:21:24.578Z,100931.91
2019-03-03T02:23:55.881Z,100932.37
2019-03-03T02:26:26.989Z,100927.20
2019-03-03T02:28:58.307Z,100930.20
2019-03-03T02:31:29.442Z,100943.14
2019-03-03T02:34:00.595Z,100943.16
2019-03-03T02:36:31.774Z,100948.76
2019-03-03T02:39:04.689Z,100951.33
2019-03-03T02:41:37.402Z,100959.95
2019-03-03T02:44:08.627Z,100976.38
2019-03-03T02:46:39.762Z,100975.87
2019-03-03T02:49:11.048Z,100978.45
2019-03-03T02:51:45.815Z,100984.92
2019-03-03T02:54:16.944Z,100982.27
2019-03-03T02:56:48.100Z,100988.74
2019-03-03T02:59:19.290Z,100982.27
2019-03-03T03:01:52.063Z,100990.00
2019-03-03T03:04:23.520Z,100990.00
2019-03-03T03:07:02.092Z,100991.69
2019-03-03T03:09:35.072Z,100983.42
2019-03-03T03:12:10.775Z,100986.91
2019-03-03T03:14:49.751Z,100980.05
2019-03-03T03:17:25.493Z,100985.19
2019-03-03T03:19:58.246Z,100993.33
2019-03-03T03:22:35.189Z,100992.95
2019-03-03T03:25:17.750Z,100989.45
2019-03-03T03:27:52.922Z,100998.12
2019-03-03T03:30:25.766Z,100997.68
2019-03-03T03:32:58.421Z,100991.17
2019-03-03T03:35:33.967Z,100991.17
2019-03-03T03:38:12.766Z,101004.11
2019-03-03T03:40:45.625Z,100998.89
2019-03-03T03:43:27.660Z,101006.64
2019-03-03T03:46:09.730Z,101017.81
2019-03-03T03:48:42.361Z,101024.31
2019-03-03T03:51:24.473Z,101019.63
2019-03-03T03:54:16.668Z,101025.17
2019-03-03T03:56:55.145Z,101029.48
2019-03-03T03:59:27.842Z,101035.53
2019-03-03T04:02:03.719Z,101038.92
2019-03-03T04:04:39.213Z,101042.69
2019-03-03T04:07:12.015Z,101040.16
2019-03-03T04:09:44.869Z,101041.40
2019-03-03T04:12:37.920Z,101049.59
2019-03-03T04:15:12.295Z,101048.72
2019-03-03T04:17:47.963Z,101043.98
2019-03-03T04:20:40.669Z,101044.84
2019-03-03T04:23:16.190Z,101044.79
2019-03-03T04:25:58.216Z,101056.36
2019-03-03T04:28:33.933Z,101049.89
2019-03-03T04:31:15.829Z,101054.65
2019-03-03T04:34:01.068Z,101061.47
2019-03-03T04:36:33.835Z,101059.19
2019-03-03T04:39:07.943Z,101047.58
2019-03-03T04:41:40.784Z,101055.38
2019-03-03T04:44:13.554Z,101057.95
2019-03-03T04:46:49.158Z,101066.95
2019-03-03T04:49:38.325Z,101082.95
2019-03-03T04:52:11.037Z,101082.95
2019-03-03T04:54:53.017Z,101080.80
2019-03-03T04:57:34.794Z,101091.06
2019-03-03T05:00:29.189Z,101089.32
2019-03-03T05:03:04.878Z,101099.72
2019-03-03T05:05:53.593Z,101100.90
2019-03-03T05:08:26.268Z,101107.84
2019-03-03T05:11:04.832Z,101110.34
2019-03-03T05:13:40.455Z,101112.60
2019-03-03T05:16:29.505Z,101125.22
2019-03-03T05:19:02.199Z,101114.88
2019-03-03T05:21:34.484Z,101116.18
2019-03-03T05:24:05.595Z,101118.63
2019-03-03T05:26:36.809Z,101119.42
2019-03-03T05:29:07.898Z,101118.11
2019-03-03T05:31:39.137Z,101113.42
2019-03-03T05:34:12.187Z,101111.36
2019-03-03T05:36:43.508Z,101111.37
2019-03-03T05:39:14.584Z,101107.90
2019-03-03T05:41:45.835Z,101107.98
2019-03-03T05:44:16.980Z,101113.66
2019-03-03T05:46:48.563Z,101108.12
2019-03-03T05:49:21.004Z,101105.16
2019-03-03T05:51:52.254Z,101107.74
2019-03-03T05:54:24.397Z,101107.76
2019-03-03T05:56:55.673Z,101097.80
2019-03-03T05:59:28.140Z,101097.78
2019-03-03T06:01:59.337Z,101096.23
2019-03-03T06:04:30.488Z,101097.05
2019-03-03T06:07:01.562Z,101099.14
2019-03-03T06:09:32.866Z,101101.23
2019-03-03T06:12:03.893Z,101107.38
2019-03-03T06:14:35.001Z,101110.84
2019-03-03T06:17:11.571Z,101105.71
2019-03-03T06:19:42.860Z,101105.36
2019-03-03T06:22:14.004Z,101100.72
2019-03-03T06:24:45.240Z,101109.02
2019-03-03T06:27:16.814Z,101106.52
2019-03-03T06:29:48.118Z,101112.13
2019-03-03T06:32:19.288Z,101112.66
2019-03-03T06:34:50.775Z,101112.22
2019-03-03T06:37:22.153Z,101116.53
2019-03-03T06:39:53.389Z,101113.86
2019-03-03T06:42:24.630Z,101111.79
2019-03-03T06:44:55.686Z,101105.75
2019-03-03T06:47:26.964Z,101116.10
2019-03-03T06:49:58.051Z,101110.06
2019-03-03T06:52:29.167Z,101106.22
2019-03-03T06:55:00.245Z,101103.67
2019-03-03T06:57:31.610Z,101116.22
2019-03-03T07:00:02.961Z,101122.30
2019-03-03T07:02:35.199Z,101124.42
2019-03-03T07:05:08.207Z,101120.07
2019-03-03T07:07:39.512Z,101116.69
2019-03-03T07:10:13.243Z,101113.70
2019-03-03T07:12:44.350Z,101105.10
2019-03-03T07:15:16.852Z,101108.55
2019-03-03T07:17:47.980Z,101104.27
2019-03-03T07:20:19.092Z,101106.02
2019-03-03T07:22:50.456Z,101115.95
2019-03-03T07:25:22.686Z,101110.41
2019-03-03T07:27:54.295Z,101110.41
2019-03-03T07:30:25.486Z,101110.41
2019-03-03T07:33:04.343Z,101115.20
2019-03-03T07:35:35.790Z,101116.06
2019-03-03T07:38:07.286Z,101115.19
2019-03-03T07:40:38.409Z,101115.23
2019-03-03T07:43:09.607Z,101112.63
2019-03-03T07:45:42.854Z,101117.86
2019-03-03T07:48:14.111Z,101114.39
2019-03-03T07:50:45.248Z,101122.63
2019-03-03T07:53:16.310Z,101119.16
2019-03-03T07:55:47.571Z,101132.16
2019-03-03T07:58:19.874Z,101127.83
2019-03-03T08:00:51.889Z,101120.05
2019-03-03T08:03:23.250Z,101122.64
2019-03-03T08:05:54.257Z,101121.79
2019-03-03T08:08:25.636Z,101123.51
2019-03-03T08:10:56.953Z,101125.66
2019-03-03T08:13:28.212Z,101123.93
2019-03-03T08:16:01.479Z,101123.95
2019-03-03T08:18:32.818Z,101128.28
2019-03-03T08:21:03.991Z,101126.98
2019-03-03T08:23:35.209Z,101123.09
2019-03-03T08:26:06.379Z,101125.23
2019-03-03T08:28:37.551Z,101128.27
2019-03-03T08:31:08.810Z,101124.82
2019-03-03T08:33:40.098Z,101132.59
2019-03-03T08:36:11.156Z,101133.02
2019-03-03T08:38:42.511Z,101136.05
2019-03-03T08:41:14.282Z,101142.12
2019-03-03T08:43:47.101Z,101135.59
2019-03-03T08:46:34.721Z,101137.31
2019-03-03T08:49:10.184Z,101133.42
2019-03-03T08:51:54.745Z,101129.06
2019-03-03T08:54:27.552Z,101132.45
2019-03-03T08:57:00.343Z,101131.59
2019-03-03T08:59:36.500Z,101130.29
2019-03-03T09:02:12.325Z,101115.10
2019-03-03T09:04:54.522Z,101131.53
2019-03-03T09:07:27.259Z,101122.90
2019-03-03T09:10:00.040Z,101122.43
2019-03-03T09:12:34.109Z,101127.63
2019-03-03T09:15:18.773Z,101127.63
2019-03-03T09:18:01.022Z,101127.66
2019-03-03T09:20:50.088Z,101135.83
2019-03-03T09:23:40.687Z,101127.54
2019-03-03T09:26:25.812Z,101130.93
2019-03-03T09:29:07.538Z,101128.28
2019-03-03T09:31:58.431Z,101126.98
2019-03-03T09:34:31.592Z,101131.36
2019-03-03T09:37:07.598Z,101124.77
2019-03-03T09:39:50.122Z,101123.00
2019-03-03T09:42:25.360Z,101124.73
2019-03-03T09:45:07.120Z,101119.44
2019-03-03T09:47:39.831Z,101126.87
2019-03-03T09:50:15.896Z,101121.72
2019-03-03T09:52:54.360Z,101117.36
2019-03-03T09:55:27.310Z,101122.16
2019-03-03T09:57:59.973Z,101112.95
2019-03-03T10:00:35.476Z,101114.25
2019-03-03T10:03:20.940Z,101115.52
2019-03-03T10:06:07.587Z,101118.87
2019-03-03T10:08:57.713Z,101115.39
2019-03-03T10:11:35.916Z,101109.22
2019-03-03T10:14:17.391Z,101103.30
2019-03-03T10:17:04.490Z,101106.60
2019-03-03T10:19:37.351Z,101111.30
2019-03-03T10:22:13.132Z,101098.37
2019-03-03T10:24:54.968Z,101086.06
2019-03-03T10:27:33.881Z,101090.86
2019-03-03T10:30:12.878Z,101084.27
2019-03-03T10:32:48.850Z,101076.84
2019-03-03T10:35:23.957Z,101069.58
2019-03-03T10:38:05.768Z,101082.59
2019-03-03T10:40:38.592Z,101073.08
2019-03-03T10:43:12.536Z,101061.22
2019-03-03T10:45:51.289Z,101068.94
2019-03-03T10:48:31.957Z,101063.84
2019-03-03T10:51:04.798Z,101070.77
2019-03-03T10:53:40.516Z,101056.51
2019-03-03T10:56:21.973Z,101062.96
2019-03-03T10:59:03.358Z,101049.67
2019-03-03T11:01:38.761Z,101059.22
2019-03-03T11:04:26.630Z,101059.01
2019-03-03T11:07:08.163Z,101059.12
2019-03-03T11:09:53.108Z,101049.53
2019-03-03T11:12:42.724Z,101050.25
2019-03-03T11:15:28.373Z,101040.81
2019-03-03T11:18:06.849Z,101037.95
2019-03-03T11:20:42.630Z,101018.42
2019-03-03T11:23:18.362Z,101015.33
2019-03-03T11:26:01.048Z,101018.73
2019-03-03T11:28:37.296Z,101021.16
2019-03-03T11:31:10.155Z,101030.34
2019-03-03T11:33:52.221Z,101014.08
2019-03-03T11:36:31.621Z,101015.86
2019-03-03T11:39:16.431Z,101017.28
2019-03-03T11:42:01.522Z,101011.20
2019-03-03T11:44:44.692Z,101012.61
2019-03-03T11:47:23.748Z,101007.89
2019-03-03T11:50:05.696Z,101025.75
2019-03-03T11:52:52.204Z,101004.72
2019-03-03T11:55:25.190Z,101002.42
2019-03-03T11:58:01.076Z,100999.33
2019-03-03T12:00:37.002Z,101003.91
2019-03-03T12:03:15.749Z,101004.52
2019-03-03T12:05:51.126Z,101001.66
2019-03-03T12:08:29.505Z,100986.59
2019-03-03T12:11:11.076Z,100988.78
2019-03-03T12:13:43.882Z,100993.21
2019-03-03T12:16:19.784Z,100996.61
2019-03-03T12:18:55.754Z,100998.22
2019-03-03T12:21:35.825Z,100989.66
2019-03-03T12:24:09.103Z,100988.20
2019-03-03T12:26:47.889Z,100984.85
2019-03-03T12:29:38.263Z,100984.78
2019-03-03T12:32:23.885Z,100987.75
2019-03-03T12:35:12.458Z,100987.09
2019-03-03T12:38:12.701Z,100985.67
2019-03-03T12:40:48.449Z,100969.93
2019-03-03T12:43:27.785Z,100980.52
2019-03-03T12:46:02.280Z,100976.64
2019-03-03T12:48:43.977Z,100968.13
2019-03-03T12:51:16.666Z,100973.21
2019-03-03T12:53:55.673Z,100956.41
2019-03-03T12:56:37.734Z,100944.55
2019-03-03T12:59:26.850Z,100955.19
2019-03-03T13:01:59.691Z,100953.16
2019-03-03T13:04:42.152Z,100937.90
2019-03-03T13:07:15.926Z,100951.83
2019-03-03T13:09:55.708Z,100945.17
2019-03-03T13:12:31.588Z,100945.34
2019-03-03T13:15:10.246Z,100941.70
2019-03-03T13:17:48.154Z,100935.81
2019-03-03T13:20:33.699Z,100928.07
2019-03-03T13:23:12.686Z,100926.34
2019-03-03T13:25:55.751Z,100924.03
2019-03-03T13:28:40.537Z,100924.03
2019-03-03T13:31:16.179Z,100911.86
2019-03-03T13:33:52.284Z,100926.27
2019-03-03T13:36:29.471Z,100929.98
2019-03-03T13:39:17.552Z,100932.19
2019-03-03T13:41:59.358Z,100922.76
2019-03-03T13:44:31.220Z,100920.43
2019-03-03T13:47:02.340Z,100926.96
2019-03-03T13:49:33.573Z,100928.92
2019-03-03T13:52:05.163Z,100922.72
2019-03-03T13:54:36.337Z,100918.27
2019-03-03T13:57:07.568Z,100921.77
2019-03-03T13:59:38.569Z,100925.37
2019-03-03T14:02:09.912Z,100923.53
2019-03-03T14:04:40.984Z,100920.22
2019-03-03T14:07:12.276Z,100914.36
2019-03-03T14:09:44.443Z,100914.09
2019-03-03T14:12:15.545Z,100924.38
2019-03-03T14:14:46.774Z,100908.78
2019-03-03T14:17:18.154Z,100913.84
2019-03-03T14:19:50.097Z,100907.02
2019-03-03T14:22:21.364Z,100919.19
2019-03-03T14:24:52.675Z,100915.28
2019-03-03T14:27:25.896Z,100903.08
2019-03-03T14:29:58.183Z,100905.28
2019-03-03T14:32:29.396Z,100893.89
2019-03-03T14:35:02.436Z,100894.78
2019-03-03T14:37:34.055Z,100895.80
2019-03-03T14:40:14.745Z,100894.59
2019-03-03T14:42:46.077Z,100898.98
2019-03-03T14:45:18.717Z,100898.66
2019-03-03T14:47:51.872Z,100891.84
2019-03-03T14:50:23.545Z,100892.33
2019-03-03T14:52:56.846Z,100903.74
2019-03-03T14:55:28.612Z,100883.34
2019-03-03T14:58:00.525Z,100887.37
2019-03-03T15:00:34.243Z,100880.09
2019-03-03T15:03:08.933Z,100883.05
2019-03-03T15:05:41.583Z,100888.78
2019-03-03T15:08:13.409Z,100890.13
2019-03-03T15:10:45.388Z,100892.36
2019-03-03T15:13:16.984Z,100888.63
2019-03-03T15:15:48.425Z,100887.77
2019-03-03T15:18:19.635Z,100882.11
2019-03-03T15:20:50.765Z,100880.84
2019-03-03T15:23:21.911Z,100875.27
2019-03-03T15:25:53.179Z,100881.45
2019-03-03T15:28:24.284Z,100880.19
2019-03-03T15:30:55.427Z,100886.27
2019-03-03T15:33:26.661Z,100885.89
2019-03-03T15:35:57.826Z,100895.44
2019-03-03T15:38:29.173Z,100887.27
2019-03-03T15:41:00.369Z,100878.65
2019-03-03T15:43:31.996Z,100880.91
2019-03-03T15:46:03.098Z,100872.64
2019-03-03T15:48:34.785Z,100874.45
2019-03-03T15:51:05.991Z,100871.44
2019-03-03T15:53:37.326Z,100868.34
2019-03-03T15:56:08.523Z,100869.23
2019-03-03T15:58:39.821Z,100880.19
2019-03-03T16:01:13.900Z,100881.97
2019-03-03T16:03:45.776Z,100883.69
2019-03-03T16:06:16.910Z,100896.77
2019-03-03T16:08:49.652Z,100895.02
2019-03-03T16:11:20.784Z,100891.55
2019-03-03T16:13:52.007Z,100885.50
2019-03-03T16:16:23.126Z,100882.16
2019-03-03T16:18:54.459Z,100870.94
2019-03-03T16:21:26.651Z,100868.30
2019-03-03T16:23:58.064Z,100863.59
2019-03-03T16:26:29.437Z,100865.25
2019-03-03T16:29:00.608Z,100859.62
2019-03-03T16:31:35.373Z,100842.35
2019-03-03T16:34:06.643Z,100845.05
2019-03-03T16:36:37.885Z,100844.55
2019-03-03T16:39:08.981Z,100841.14
2019-03-03T16:41:41.977Z,100832.08
2019-03-03T16:44:13.809Z,100829.95
2019-03-03T16:46:44.970Z,100825.25
2019-03-03T16:49:16.266Z,100823.53
2019-03-03T16:51:48.580Z,100831.77
2019-03-03T16:54:23.877Z,100828.78
2019-03-03T16:56:55.004Z,100824.39
2019-03-03T16:59:26.305Z,100826.23
2019-03-03T17:01:57.660Z,100822.73
2019-03-03T17:04:28.906Z,100822.77
2019-03-03T17:07:00.393Z,100812.84
2019-03-03T17:09:31.884Z,100815.05
2019-03-03T17:12:04.693Z,100811.58
2019-03-03T17:14:36.054Z,100809.89
2019-03-03T17:17:07.391Z,100808.55
2019-03-03T17:19:38.812Z,100803.91
2019-03-03T17:22:10.420Z,100807.02
2019-03-03T17:24:42.004Z,100798.76
2019-03-03T17:27:13.208Z,100817.02
2019-03-03T17:29:46.607Z,100810.48
2019-03-03T17:32:18.862Z,100807.11
2019-03-03T17:34:50.087Z,100815.42
2019-03-03T17:37:21.265Z,100817.98
2019-03-03T17:39:52.557Z,100820.58
2019-03-03T17:42:23.840Z,100816.67
2019-03-03T17:44:55.067Z,100817.11
2019-03-03T17:47:26.211Z,100809.33
2019-03-03T17:49:59.131Z,100815.45
2019-03-03T17:52:35.753Z,100807.31
2019-03-03T17:55:07.546Z,100820.27
2019-03-03T17:57:38.734Z,100812.98
2019-03-03T18:00:19.954Z,100818.61
2019-03-03T18:02:58.759Z,100820.00
2019-03-03T18:05:30.095Z,100816.09
2019-03-03T18:08:01.443Z,100817.95
2019-03-03T18:10:33.558Z,100817.59
2019-03-03T18:13:05.480Z,100818.88
2019-03-03T18:15:36.748Z,100812.04
2019-03-03T18:18:07.828Z,100811.59
2019-03-03T18:20:40.680Z,100812.70
2019-03-03T18:23:11.715Z,100804.06
2019-03-03T18:25:43.070Z,100806.66
2019-03-03T18:28:15.559Z,100811.45
2019-03-03T18:30:46.688Z,100798.95
2019-03-03T18:33:17.783Z,100793.80
2019-03-03T18:35:48.963Z,100795.54
2019-03-03T18:38:20.095Z,100804.65
2019-03-03T18:40:51.276Z,100795.98
2019-03-03T18:43:22.536Z,100795.08
2019-03-03T18:45:53.927Z,100795.12
2019-03-03T18:48:25.329Z,100788.16
2019-03-03T18:50:56.521Z,100780.91
2019-03-03T18:53:28.563Z,100786.13
2019-03-03T18:55:59.868Z,100777.08
2019-03-03T18:58:31.159Z,100778.35
2019-03-03T19:01:02.424Z,100778.33
2019-03-03T19:03:33.547Z,100771.38
2019-03-03T19:06:04.739Z,100781.31
2019-03-03T19:08:36.059Z,100785.63
2019-03-03T19:11:07.275Z,100784.31
2019-03-03T19:13:39.508Z,100795.20
2019-03-03T19:16:10.753Z,100786.96
2019-03-03T19:18:41.980Z,100795.63
2019-03-03T19:21:13.086Z,100788.76
2019-03-03T19:23:45.146Z,100785.31
2019-03-03T19:26:16.473Z,100789.29
2019-03-03T19:28:47.697Z,100783.27
2019-03-03T19:31:20.865Z,100778.16
2019-03-03T19:33:55.005Z,100781.99
2019-03-03T19:36:26.155Z,100788.95
2019-03-03T19:38:57.498Z,100795.63
2019-03-03T19:41:28.751Z,100791.67
2019-03-03T19:44:01.995Z,100791.72
2019-03-03T19:46:33.347Z,100790.00
2019-03-03T19:49:04.575Z,100785.23
2019-03-03T19:51:35.731Z,100775.23
2019-03-03T19:54:07.817Z,100782.63
2019-03-03T19:56:39.319Z,100772.38
2019-03-03T19:59:10.510Z,100773.66
2019-03-03T20:01:41.698Z,100771.50
2019-03-03T20:04:13.021Z,100773.67
2019-03-03T20:06:44.449Z,100764.59
2019-03-03T20:09:20.224Z,100765.02
2019-03-03T20:11:51.696Z,100761.98
2019-03-03T20:14:24.608Z,100766.37
2019-03-03T20:16:56.252Z,100756.05
2019-03-03T20:19:27.707Z,100767.82
2019-03-03T20:21:59.343Z,100763.12
2019-03-03T20:24:32.754Z,100766.62
2019-03-03T20:27:04.268Z,100757.20
2019-03-03T20:29:37.024Z,100761.03
2019-03-03T20:32:12.238Z,100751.12
2019-03-03T20:34:44.071Z,100747.69
2019-03-03T20:37:15.435Z,100753.75
2019-03-03T20:39:46.854Z,100746.41
2019-03-03T20:42:19.898Z,100746.47
2019-03-03T20:44:51.262Z,100745.15
2019-03-03T20:47:22.643Z,100739.66
2019-03-03T20:49:54.051Z,100741.44
2019-03-03T20:52:25.620Z,100735.31
2019-03-03T20:54:57.247Z,100731.87
2019-03-03T20:57:29.121Z,100736.19
2019-03-03T21:00:00.558Z,100731.87
2019-03-03T21:02:32.978Z,100743.59
2019-03-03T21:05:09.928Z,100731.49
2019-03-03T21:07:50.636Z,100737.54
2019-03-03T21:10:16.620Z,100732.75
2019-03-03T21:12:49.193Z,100718.89
2019-03-03T21:15:23.895Z,100739.20
2019-03-03T21:17:56.670Z,100734.92
2019-03-03T21:20:29.785Z,100734.95
2019-03-03T21:23:01.941Z,100728.86
2019-03-03T21:25:33.279Z,100737.06
2019-03-03T21:28:05.927Z,100726.22
2019-03-03T21:30:45.382Z,100723.20
2019-03-03T21:33:23.203Z,100727.97
2019-03-03T21:35:54.390Z,100721.52
2019-03-03T21:38:26.252Z,100714.19
2019-03-03T21:40:57.683Z,100715.46
2019-03-03T21:43:32.017Z,100714.16
2019-03-03T21:46:03.254Z,100710.69
2019-03-03T21:48:36.340Z,100705.47
2019-03-03T21:51:07.481Z,100700.76
2019-03-03T21:53:42.862Z,100710.22
2019-03-03T21:56:14.158Z,100684.25
2019-03-03T21:58:45.496Z,100695.48
2019-03-03T22:01:17.010Z,100692.00
2019-03-03T22:03:52.401Z,100701.14
2019-03-03T22:06:26.887Z,100701.13
2019-03-03T22:09:00.617Z,100685.56
2019-03-03T22:11:34.920Z,100685.13
2019-03-03T22:14:06.465Z,100672.16
2019-03-03T22:16:37.675Z,100678.19
2019-03-03T22:19:08.960Z,100686.90
2019-03-03T22:21:40.318Z,100677.39
2019-03-03T22:24:11.664Z,100667.86
2019-03-03T22:26:43.478Z,100675.77
2019-03-03T22:29:19.397Z,100662.74
2019-03-03T22:31:50.903Z,100663.21
2019-03-03T22:34:22.210Z,100655.86
2019-03-03T22:36:53.784Z,100643.83
2019-03-03T22:39:25.441Z,100639.43
2019-03-03T22:41:58.216Z,100636.05
2019-03-03T22:44:29.575Z,100647.20
2019-03-03T22:47:03.785Z,100649.38
2019-03-03T22:49:35.212Z,100655.05
2019-03-03T22:52:06.438Z,100645.57
2019-03-03T22:54:42.146Z,100638.64
2019-03-03T22:57:22.009Z,100652.92
2019-03-03T22:59:56.255Z,100656.84
2019-03-03T23:02:27.585Z,100646.45
2019-03-03T23:05:21.465Z,100649.95
2019-03-03T23:07:56.207Z,100647.81
2019-03-03T23:10:41.276Z,100643.05
2019-03-03T23:13:24.794Z,100649.11
2019-03-03T23:16:32.689Z,100639.59
2019-03-03T23:19:19.173Z,100636.56
2019-03-03T23:22:12.715Z,100632.72
2019-03-03T23:25:05.282Z,100624.02
2019-03-03T23:27:36.482Z,100624.91
2019-03-03T23:30:08.881Z,100620.99
2019-03-03T23:32:40.112Z,100618.42
2019-03-03T23:35:11.363Z,100627.05
2019-03-03T23:37:42.632Z,100627.09
2019-03-03T23:40:15.059Z,100617.60
2019-03-03T23:42:46.318Z,100600.73
2019-03-03T23:45:17.469Z,100601.66
2019-03-03T23:47:48.587Z,100592.63
2019-03-03T23:50:20.774Z,100592.63
2019-03-03T23:52:51.823Z,100590.48
2019-03-03T23:55:22.936Z,100584.45
2019-03-03T23:57:54.182Z,100574.51
